Impacts METAR Board INFO
IDs:

KATL - Atlanta/Hartsfield-J, GA, US

Updated at: 0917 UTC 20 Jan 2018
Potential Impact None Slight Moderate High
Time19/21Z 19/22Z 19/23Z 20/00Z 20/01Z 20/02Z 20/03Z 20/04Z 20/05Z 20/06Z 20/07Z 20/08Z 20/09Z
VIS10 10 10 10 10 10 10 10 10 10 10 10 10
CIG-- -- -- -- -- -- -- -- -- -- -- -- --
CoverFEWFEWFEWFEWFEWFEWFEWFEWFEWFEWCLRCLRCLR
FltCatVFRVFRVFRVFRVFRVFRVFRVFRVFRVFRVFRVFRVFR
WX--------------------------
WDir290280270230240260290260290240290300290
WSpd4 4 4 3 3 5 4 3 5 3 7 7 8
WGst-- -- -- -- -- -- -- -- -- -- -- -- --
Raw hourly METARs
KATL 192052Z 29004KT 10SM FEW250 12/M14 A3023 RMK AO2 SLP242 T01221144 56018
KATL 192152Z 28004KT 10SM FEW250 12/M14 A3022 RMK AO2 SLP240 T01171139
KATL 192252Z 27004KT 10SM FEW250 11/M15 A3022 RMK AO2 SLP239 T01061150
KATL 192352Z 23003KT 10SM FEW250 07/M10 A3021 RMK AO2 SLP240 T00671100 10128 20067 57005
KATL 200052Z 24003KT 10SM FEW250 05/M09 A3022 RMK AO2 SLP243 T00501094
KATL 200152Z 26005KT 10SM FEW250 06/M11 A3023 RMK AO2 SLP245 T00561111
KATL 200252Z 29004KT 10SM FEW250 06/M13 A3023 RMK AO2 SLP244 T00611133 51006
KATL 200352Z 26003KT 10SM FEW250 03/M09 A3025 RMK AO2 SLP250 T00331094
KATL 200452Z 29005KT 10SM FEW250 04/M12 A3024 RMK AO2 SLP246 T00391122 401281033
KATL 200552Z 24003KT 10SM FEW250 02/M11 A3024 RMK AO2 SLP245 T00221111 10078 20022 50002
KATL 200652Z 29007KT 10SM CLR 02/M11 A3023 RMK AO2 SLP243 T00221106
KATL 200752Z 30007KT 10SM CLR 02/M11 A3024 RMK AO2 SLP246 T00171106
KATL 200852Z 29008KT 10SM CLR 02/M10 A3024 RMK AO2 SLP246 T00221100 53002